createdAt,value
2023-05-10T00:00:05.609Z,960.12
2023-05-10T00:01:05.574Z,960.12
2023-05-10T00:02:05.496Z,960.13
2023-05-10T00:03:05.691Z,960.15
2023-05-10T00:04:05.458Z,960.17
2023-05-10T00:05:05.408Z,960.13
2023-05-10T00:06:05.464Z,960.13
2023-05-10T00:07:06.439Z,960.07
2023-05-10T00:08:05.426Z,960.13
2023-05-10T00:09:05.181Z,960.14
2023-05-10T00:10:06.256Z,960.13
2023-05-10T00:11:05.087Z,960.15
2023-05-10T00:12:05.455Z,960.17
2023-05-10T00:13:05.098Z,960.13
2023-05-10T00:14:04.954Z,960.12
2023-05-10T00:15:04.912Z,960.13
2023-05-10T00:16:07.005Z,960.14
2023-05-10T00:17:04.832Z,960.16
2023-05-10T00:18:05.105Z,960.20
2023-05-10T00:19:04.759Z,960.21
2023-05-10T00:20:04.702Z,960.26
2023-05-10T00:21:04.660Z,960.23
2023-05-10T00:22:04.748Z,960.30
2023-05-10T00:23:04.588Z,960.29
2023-05-10T00:24:04.725Z,960.31
2023-05-10T00:25:04.479Z,960.25
2023-05-10T00:26:04.442Z,960.30
2023-05-10T00:27:05.565Z,960.29
2023-05-10T00:28:04.371Z,960.30
2023-05-10T00:29:06.403Z,960.29
2023-05-10T00:30:05.438Z,960.32
2023-05-10T00:31:04.226Z,960.29
2023-05-10T00:32:04.277Z,960.35
2023-05-10T00:33:04.224Z,960.32
2023-05-10T00:34:04.089Z,960.35
2023-05-10T00:35:05.217Z,960.35
2023-05-10T00:36:04.029Z,960.35
2023-05-10T00:37:03.986Z,960.37
2023-05-10T00:38:06.106Z,960.34
2023-05-10T00:39:04.019Z,960.35
2023-05-10T00:40:03.829Z,960.32
2023-05-10T00:41:04.849Z,960.31
2023-05-10T00:42:03.758Z,960.32
2023-05-10T00:43:03.889Z,960.24
2023-05-10T00:44:03.858Z,960.26
2023-05-10T00:45:03.617Z,960.30
2023-05-10T00:46:03.732Z,960.33
2023-05-10T00:47:03.548Z,960.24
2023-05-10T00:48:03.714Z,960.30
2023-05-10T00:49:03.493Z,960.28
2023-05-10T00:50:03.485Z,960.37
2023-05-10T00:51:03.351Z,960.35
2023-05-10T00:52:03.492Z,960.36
2023-05-10T00:53:03.269Z,960.33
2023-05-10T00:54:03.226Z,960.34
2023-05-10T00:55:04.402Z,960.34
2023-05-10T00:56:24.418Z,960.39
2023-05-10T00:57:03.100Z,960.38
2023-05-10T00:58:03.137Z,960.34
2023-05-10T00:59:03.013Z,960.32
2023-05-10T01:00:02.962Z,960.34
2023-05-10T01:01:03.989Z,960.40
2023-05-10T01:02:04.063Z,960.42
2023-05-10T01:03:04.156Z,960.40
2023-05-10T01:04:02.796Z,960.39
2023-05-10T01:05:03.058Z,960.33
2023-05-10T01:06:02.714Z,960.31
2023-05-10T01:07:02.788Z,960.31
2023-05-10T01:08:02.620Z,960.32
2023-05-10T01:09:02.801Z,960.37
2023-05-10T01:10:02.554Z,960.38
2023-05-10T01:11:02.495Z,960.34
2023-05-10T01:12:02.697Z,960.39
2023-05-10T01:13:02.637Z,960.39
2023-05-10T01:14:02.355Z,960.39
2023-05-10T01:15:02.446Z,960.39
2023-05-10T01:16:02.356Z,960.38
2023-05-10T01:17:02.242Z,960.40
2023-05-10T01:18:02.227Z,960.43
2023-05-10T01:19:02.284Z,960.42
2023-05-10T01:20:02.107Z,960.40
2023-05-10T01:21:02.282Z,960.38
2023-05-10T01:22:02.020Z,960.44
2023-05-10T01:23:02.149Z,960.40
2023-05-10T01:24:02.104Z,960.43
2023-05-10T01:25:01.884Z,960.41
2023-05-10T01:26:01.904Z,960.38
2023-05-10T01:27:01.820Z,960.42
2023-05-10T01:28:01.923Z,960.45
2023-05-10T01:29:01.712Z,960.47
2023-05-10T01:30:14.673Z,960.49
2023-05-10T01:31:01.696Z,960.45
2023-05-10T01:32:01.751Z,960.45
2023-05-10T01:33:01.583Z,960.46
2023-05-10T01:34:01.490Z,960.46
2023-05-10T01:35:01.450Z,960.53
2023-05-10T01:36:01.576Z,960.48
2023-05-10T01:37:01.361Z,960.50
2023-05-10T01:38:01.599Z,960.51
2023-05-10T01:39:01.269Z,960.53
2023-05-10T01:40:01.228Z,960.53
2023-05-10T01:41:01.181Z,960.55
2023-05-10T01:42:01.409Z,960.54
2023-05-10T01:43:01.104Z,960.57
2023-05-10T01:44:01.219Z,960.53
2023-05-10T01:45:01.012Z,960.59
2023-05-10T01:46:00.965Z,960.56
2023-05-10T01:47:02.167Z,960.55
2023-05-10T01:48:03.174Z,960.55
2023-05-10T01:49:01.047Z,960.55
2023-05-10T01:50:00.797Z,960.55
2023-05-10T01:51:00.751Z,960.54
2023-05-10T01:52:00.701Z,960.61
2023-05-10T01:53:00.880Z,960.55
2023-05-10T01:54:00.633Z,960.53
2023-05-10T01:55:00.681Z,960.55
2023-05-10T01:56:00.535Z,960.58
2023-05-10T01:57:00.502Z,960.59
2023-05-10T01:58:00.446Z,960.58
2023-05-10T01:59:00.506Z,960.65
2023-05-10T02:00:00.559Z,960.64
2023-05-10T02:01:01.579Z,960.59
2023-05-10T02:02:00.262Z,960.62
2023-05-10T02:03:00.310Z,960.64
2023-05-10T02:04:02.451Z,960.66
2023-05-10T02:05:00.146Z,960.64
2023-05-10T02:06:01.187Z,960.56
2023-05-10T02:07:00.077Z,960.60
2023-05-10T02:08:00.581Z,960.57
2023-05-10T02:08:59.958Z,960.59
2023-05-10T02:10:00.215Z,960.58
2023-05-10T02:10:59.878Z,960.56
2023-05-10T02:12:01.016Z,960.57
2023-05-10T02:12:59.840Z,960.57
2023-05-10T02:13:59.761Z,960.58
2023-05-10T02:14:59.700Z,960.60
2023-05-10T02:15:59.812Z,960.61
2023-05-10T02:16:59.675Z,960.58
2023-05-10T02:17:59.857Z,960.62
2023-05-10T02:18:59.745Z,960.63
2023-05-10T02:19:59.487Z,960.63
2023-05-10T02:20:59.437Z,960.60
2023-05-10T02:22:00.487Z,960.66
2023-05-10T02:22:59.353Z,960.66
2023-05-10T02:24:01.525Z,960.65
2023-05-10T02:24:59.283Z,960.58
2023-05-10T02:25:59.225Z,960.63
2023-05-10T02:26:59.286Z,960.61
2023-05-10T02:27:59.135Z,960.62
2023-05-10T02:29:00.325Z,960.64
2023-05-10T02:29:59.172Z,960.63
2023-05-10T02:30:59.027Z,960.65
2023-05-10T02:31:59.034Z,960.62
2023-05-10T02:32:59.180Z,960.67
2023-05-10T02:33:58.883Z,960.63
2023-05-10T02:35:00.173Z,960.60
2023-05-10T02:35:58.788Z,960.64
2023-05-10T02:36:58.745Z,960.63
2023-05-10T02:37:58.700Z,960.59
2023-05-10T02:38:58.757Z,960.59
2023-05-10T02:39:58.614Z,960.62
2023-05-10T02:40:58.984Z,960.62
2023-05-10T02:41:58.555Z,960.63
2023-05-10T02:42:58.489Z,960.63
2023-05-10T02:44:00.637Z,960.61
2023-05-10T02:44:58.397Z,960.57
2023-05-10T02:46:00.470Z,960.56
2023-05-10T02:46:58.338Z,960.63
2023-05-10T02:48:00.552Z,960.63
2023-05-10T02:48:58.255Z,960.63
2023-05-10T02:49:59.268Z,960.64
2023-05-10T02:50:58.142Z,960.64
2023-05-10T02:51:59.674Z,960.63
2023-05-10T02:52:58.045Z,960.56
2023-05-10T02:53:58.005Z,960.52
2023-05-10T02:54:57.967Z,960.51
2023-05-10T02:56:00.124Z,960.52
2023-05-10T02:56:57.873Z,960.53
2023-05-10T02:57:58.073Z,960.50
2023-05-10T02:58:57.787Z,960.54
2023-05-10T02:59:57.750Z,960.49
2023-05-10T03:00:57.701Z,960.48
2023-05-10T03:01:57.970Z,960.51
2023-05-10T03:02:57.664Z,960.52
2023-05-10T03:04:00.992Z,960.48
2023-05-10T03:04:57.612Z,960.46
2023-05-10T03:05:57.487Z,960.50
2023-05-10T03:06:57.738Z,960.48
2023-05-10T03:07:57.402Z,960.50
2023-05-10T03:08:57.775Z,960.50
2023-05-10T03:09:57.312Z,960.52
2023-05-10T03:10:57.263Z,960.53
2023-05-10T03:11:57.246Z,960.52
2023-05-10T03:12:57.386Z,960.54
2023-05-10T03:13:57.138Z,960.55
2023-05-10T03:14:57.385Z,960.57
2023-05-10T03:15:57.079Z,960.65
2023-05-10T03:16:57.001Z,960.61
2023-05-10T03:17:57.044Z,960.68
2023-05-10T03:18:57.006Z,960.59
2023-05-10T03:19:56.878Z,960.61
2023-05-10T03:20:59.074Z,960.64
2023-05-10T03:21:56.793Z,960.68
2023-05-10T03:22:56.748Z,960.59
2023-05-10T03:23:56.838Z,960.58
2023-05-10T03:24:56.656Z,960.60
2023-05-10T03:26:18.971Z,960.58
2023-05-10T03:26:56.587Z,960.58
2023-05-10T03:27:56.665Z,960.53
2023-05-10T03:28:56.496Z,960.60
2023-05-10T03:29:56.682Z,960.65
2023-05-10T03:30:56.395Z,960.63
2023-05-10T03:31:57.555Z,960.62
2023-05-10T03:32:56.554Z,960.71
2023-05-10T03:33:56.269Z,960.70
2023-05-10T03:34:56.222Z,960.69
2023-05-10T03:35:56.309Z,960.64
2023-05-10T03:36:56.153Z,960.64
2023-05-10T03:37:56.322Z,960.67
2023-05-10T03:38:56.053Z,960.72
2023-05-10T03:39:56.006Z,960.62
2023-05-10T03:40:55.953Z,960.69
2023-05-10T03:41:56.147Z,960.70
2023-05-10T03:42:56.202Z,960.68
2023-05-10T03:43:55.963Z,960.72
2023-05-10T03:44:55.779Z,960.70
2023-05-10T03:45:55.758Z,960.76
2023-05-10T03:46:55.808Z,960.70
2023-05-10T03:47:55.662Z,960.71
2023-05-10T03:48:56.001Z,960.71
2023-05-10T03:49:55.563Z,960.74
2023-05-10T03:50:55.524Z,960.72
2023-05-10T03:51:55.484Z,960.76
2023-05-10T03:52:55.624Z,960.72
2023-05-10T03:53:55.392Z,960.73
2023-05-10T03:54:55.638Z,960.78
2023-05-10T03:55:55.298Z,960.74
2023-05-10T03:56:55.255Z,960.80
2023-05-10T03:57:55.230Z,960.79
2023-05-10T03:58:55.467Z,960.77
2023-05-10T03:59:55.121Z,960.83
2023-05-10T04:00:55.285Z,960.82
2023-05-10T04:01:55.069Z,960.84
2023-05-10T04:02:55.058Z,960.79
2023-05-10T04:03:55.155Z,960.76
2023-05-10T04:04:55.142Z,960.77
2023-05-10T04:05:55.131Z,960.80
2023-05-10T04:06:54.818Z,960.80
2023-05-10T04:07:54.910Z,960.85
2023-05-10T04:08:54.728Z,960.78
2023-05-10T04:09:54.928Z,960.76
2023-05-10T04:10:54.639Z,960.78
2023-05-10T04:11:54.947Z,960.83
2023-05-10T04:12:54.575Z,960.73
2023-05-10T04:13:54.513Z,960.72
2023-05-10T04:14:54.465Z,960.76
2023-05-10T04:15:54.566Z,960.71
2023-05-10T04:16:54.414Z,960.74
2023-05-10T04:17:54.624Z,960.72
2023-05-10T04:18:54.286Z,960.68
2023-05-10T04:19:54.245Z,960.65
2023-05-10T04:20:55.461Z,960.66
2023-05-10T04:21:54.399Z,960.74
2023-05-10T04:22:54.115Z,960.70
2023-05-10T04:23:54.204Z,960.74
2023-05-10T04:24:54.026Z,960.72
2023-05-10T04:25:53.987Z,960.75
2023-05-10T04:26:55.494Z,960.74
2023-05-10T04:27:53.895Z,960.75
2023-05-10T04:28:55.060Z,960.79
2023-05-10T04:29:53.812Z,960.81
2023-05-10T04:30:53.796Z,960.80
2023-05-10T04:31:53.725Z,960.85
2023-05-10T04:32:54.103Z,960.87
2023-05-10T04:33:53.628Z,960.84
2023-05-10T04:34:54.752Z,960.82
2023-05-10T04:35:53.560Z,960.87
2023-05-10T04:36:53.493Z,960.85
2023-05-10T04:37:53.458Z,960.82
2023-05-10T04:38:54.527Z,960.88
2023-05-10T04:39:53.367Z,960.81
2023-05-10T04:40:55.569Z,960.85
2023-05-10T04:41:53.570Z,960.86
2023-05-10T04:42:53.241Z,960.83
2023-05-10T04:43:53.328Z,960.84
2023-05-10T04:44:53.147Z,960.88
2023-05-10T04:45:53.414Z,960.95
2023-05-10T04:46:53.062Z,960.86
2023-05-10T04:47:53.191Z,960.91
2023-05-10T04:48:52.986Z,960.87
2023-05-10T04:49:53.167Z,960.92
2023-05-10T04:50:52.917Z,960.86
2023-05-10T04:51:52.980Z,960.93
2023-05-10T04:52:53.382Z,960.95
2023-05-10T04:54:05.430Z,960.90
2023-05-10T04:54:53.021Z,960.95
2023-05-10T04:55:52.688Z,961.02
2023-05-10T04:56:52.811Z,960.93
2023-05-10T04:57:52.607Z,961.01
2023-05-10T04:58:52.832Z,960.92
2023-05-10T04:59:52.567Z,960.95
2023-05-10T05:00:53.700Z,960.97
2023-05-10T05:01:52.447Z,960.97
2023-05-10T05:03:13.585Z,960.91
2023-05-10T05:03:52.367Z,960.95
2023-05-10T05:04:52.468Z,960.92
2023-05-10T05:05:52.534Z,960.97
2023-05-10T05:06:53.740Z,961.05
2023-05-10T05:07:52.151Z,961.01
2023-05-10T05:10:24.038Z,961.08
2023-05-10T05:11:23.648Z,961.15
2023-05-10T05:12:23.850Z,961.11
2023-05-10T05:13:23.674Z,961.10
2023-05-10T05:14:24.689Z,961.14
2023-05-10T05:15:23.473Z,961.17
2023-05-10T05:16:23.458Z,961.16
2023-05-10T05:17:23.435Z,961.14
2023-05-10T05:18:23.486Z,961.13
2023-05-10T05:19:23.299Z,961.16
2023-05-10T05:20:24.741Z,961.27
2023-05-10T05:21:23.224Z,961.22
2023-05-10T05:22:23.169Z,961.20
2023-05-10T05:23:23.310Z,961.24
2023-05-10T05:24:23.079Z,961.25
2023-05-10T05:25:23.328Z,961.27
2023-05-10T05:26:23.189Z,961.30
2023-05-10T05:27:23.133Z,961.26
2023-05-10T05:28:22.906Z,961.28
2023-05-10T05:29:23.355Z,961.26
2023-05-10T05:30:22.810Z,961.26
2023-05-10T05:31:22.981Z,961.31
2023-05-10T05:32:22.732Z,961.31
2023-05-10T05:33:22.685Z,961.23
2023-05-10T05:34:22.639Z,961.21
2023-05-10T05:35:22.994Z,961.25
2023-05-10T05:36:22.554Z,961.22
2023-05-10T05:37:24.641Z,961.27
2023-05-10T05:38:22.468Z,961.27
2023-05-10T05:39:22.431Z,961.30
2023-05-10T05:40:22.378Z,961.33
2023-05-10T05:41:22.384Z,961.36
2023-05-10T05:42:22.433Z,961.41
2023-05-10T05:43:22.264Z,961.40
2023-05-10T05:44:22.441Z,961.46
2023-05-10T05:45:22.175Z,961.44
2023-05-10T05:46:22.275Z,961.46
2023-05-10T05:47:22.314Z,961.48
2023-05-10T05:48:23.315Z,961.46
2023-05-10T05:49:21.981Z,961.48
2023-05-10T05:50:22.082Z,961.45
2023-05-10T05:51:21.896Z,961.42
2023-05-10T05:52:23.114Z,961.49
2023-05-10T05:53:21.815Z,961.52
2023-05-10T05:54:21.903Z,961.48
2023-05-10T05:55:21.738Z,961.53
2023-05-10T05:56:21.687Z,961.50
2023-05-10T05:57:21.791Z,961.53
2023-05-10T05:58:23.990Z,961.48
2023-05-10T05:59:21.554Z,961.52
2023-05-10T06:03:48.198Z,961.50
2023-05-10T06:04:50.036Z,961.47
2023-05-10T06:05:47.750Z,961.50
2023-05-10T06:06:48.821Z,961.50
2023-05-10T06:07:47.804Z,961.49
2023-05-10T06:08:47.613Z,961.52
2023-05-10T06:09:47.818Z,961.54
2023-05-10T06:10:47.524Z,961.58
2023-05-10T06:11:47.638Z,961.62
2023-05-10T06:12:47.492Z,961.59
2023-05-10T06:13:47.398Z,961.57
2023-05-10T06:14:48.881Z,961.54
2023-05-10T06:15:47.459Z,961.54
2023-05-10T06:16:47.305Z,961.56
2023-05-10T06:17:48.519Z,961.52
2023-05-10T06:18:47.172Z,961.53
2023-05-10T06:19:48.306Z,961.50
2023-05-10T06:20:47.107Z,961.51
2023-05-10T06:21:53.102Z,961.52
2023-05-10T06:22:46.999Z,961.56
2023-05-10T06:23:47.100Z,961.57
2023-05-10T06:24:47.122Z,961.61
2023-05-10T06:25:46.866Z,961.57
2023-05-10T06:26:47.124Z,961.54
2023-05-10T06:27:49.705Z,961.58
2023-05-10T06:28:49.005Z,961.59
2023-05-10T06:29:46.708Z,961.60
2023-05-10T06:30:46.648Z,961.64
2023-05-10T06:31:46.652Z,961.68
2023-05-10T06:32:46.794Z,961.71
2023-05-10T06:33:47.842Z,961.71
2023-05-10T06:34:46.778Z,961.71
2023-05-10T06:35:46.434Z,961.70
2023-05-10T06:36:46.610Z,961.73
2023-05-10T06:37:46.363Z,961.77
2023-05-10T06:38:46.598Z,961.89
2023-05-10T06:39:46.274Z,961.92
2023-05-10T06:40:46.407Z,961.87
2023-05-10T06:41:46.627Z,962.00
2023-05-10T06:42:46.125Z,961.91
2023-05-10T06:43:47.260Z,961.93
2023-05-10T06:44:46.089Z,961.93
2023-05-10T06:45:47.261Z,962.02
2023-05-10T06:46:46.043Z,962.03
2023-05-10T06:47:45.961Z,962.03
2023-05-10T06:48:46.059Z,962.03
2023-05-10T06:49:45.807Z,962.06
2023-05-10T06:50:46.073Z,962.14
2023-05-10T06:51:46.955Z,961.97
2023-05-10T06:52:45.688Z,961.93
2023-05-10T06:53:45.628Z,961.94
2023-05-10T06:54:45.901Z,961.90
2023-05-10T06:55:45.544Z,961.95
2023-05-10T06:56:45.715Z,961.92
2023-05-10T06:57:45.486Z,961.96
2023-05-10T06:58:45.415Z,961.99
2023-05-10T06:59:45.360Z,962.02
2023-05-10T07:00:45.575Z,962.00
2023-05-10T07:01:45.310Z,961.99
2023-05-10T07:02:45.711Z,961.95
2023-05-10T07:03:45.371Z,961.96
2023-05-10T07:04:45.388Z,961.97
2023-05-10T07:05:45.156Z,961.96
2023-05-10T07:06:45.375Z,962.00
2023-05-10T07:07:45.014Z,961.98
2023-05-10T07:08:45.193Z,961.95
2023-05-10T07:09:45.185Z,961.93
2023-05-10T07:10:44.883Z,961.97
2023-05-10T07:11:45.914Z,961.98
2023-05-10T07:12:44.825Z,961.94
2023-05-10T07:13:44.995Z,961.96
2023-05-10T07:14:44.709Z,962.00
2023-05-10T07:15:44.871Z,962.07
2023-05-10T07:16:44.743Z,962.05
2023-05-10T07:17:45.771Z,962.05
2023-05-10T07:18:45.576Z,962.04
2023-05-10T07:19:44.530Z,962.09
2023-05-10T07:20:44.429Z,962.09
2023-05-10T07:21:44.394Z,962.08
2023-05-10T07:22:44.576Z,962.10
2023-05-10T07:23:45.128Z,962.06
2023-05-10T07:24:46.633Z,962.11
2023-05-10T07:25:44.210Z,962.09
2023-05-10T07:26:44.187Z,962.11
2023-05-10T07:27:44.207Z,962.16
2023-05-10T07:28:44.092Z,962.12
2023-05-10T07:29:45.241Z,962.14
2023-05-10T07:30:44.069Z,962.17
2023-05-10T07:31:45.171Z,962.20
2023-05-10T07:32:43.932Z,962.16
2023-05-10T07:33:45.057Z,962.11
2023-05-10T07:34:43.860Z,962.09
2023-05-10T07:35:44.862Z,962.06
2023-05-10T07:36:43.741Z,962.06
2023-05-10T07:37:43.719Z,962.09
2023-05-10T07:38:44.682Z,962.13
2023-05-10T07:39:43.599Z,962.13
2023-05-10T07:40:43.676Z,962.12
2023-05-10T07:41:43.510Z,962.11
2023-05-10T07:42:43.483Z,962.13
2023-05-10T07:43:44.570Z,962.10
2023-05-10T07:44:44.531Z,962.12
2023-05-10T07:45:43.353Z,962.19
2023-05-10T07:46:43.516Z,962.17
2023-05-10T07:47:43.297Z,962.21
2023-05-10T07:48:43.220Z,962.17
2023-05-10T07:49:43.171Z,962.16
2023-05-10T07:51:04.220Z,962.19
2023-05-10T07:51:43.075Z,962.20
2023-05-10T07:52:44.169Z,962.21
2023-05-10T07:53:43.042Z,962.19
2023-05-10T07:54:43.162Z,962.20
2023-05-10T07:55:42.909Z,962.17
2023-05-10T07:56:43.172Z,962.21
2023-05-10T07:57:42.824Z,962.10
2023-05-10T07:58:43.003Z,962.17
2023-05-10T07:59:43.829Z,962.09
2023-05-10T08:00:42.709Z,962.14
2023-05-10T08:01:44.049Z,962.17
2023-05-10T08:02:42.656Z,962.16
2023-05-10T08:03:42.648Z,962.11
2023-05-10T08:04:42.681Z,962.13
2023-05-10T08:05:42.494Z,962.15
2023-05-10T08:06:42.717Z,962.18
2023-05-10T08:07:42.425Z,962.16
2023-05-10T08:08:42.454Z,962.15
2023-05-10T08:09:42.503Z,962.13
2023-05-10T08:10:42.277Z,962.11
2023-05-10T08:11:42.244Z,962.21
2023-05-10T08:12:42.269Z,962.20
2023-05-10T08:13:42.152Z,962.15
2023-05-10T08:14:42.279Z,962.21
2023-05-10T08:15:42.092Z,962.25
2023-05-10T08:16:42.030Z,962.20
2023-05-10T08:17:42.135Z,962.16
2023-05-10T08:18:41.942Z,962.15
2023-05-10T08:20:03.207Z,962.20
2023-05-10T08:20:41.880Z,962.18
2023-05-10T08:21:41.927Z,962.21
2023-05-10T08:22:43.010Z,962.21
2023-05-10T08:23:41.936Z,962.17
2023-05-10T08:24:41.682Z,962.17
2023-05-10T08:25:42.774Z,962.21
2023-05-10T08:26:41.606Z,962.18
2023-05-10T08:27:41.555Z,962.18
2023-05-10T08:28:41.514Z,962.18
2023-05-10T08:29:50.071Z,962.15
2023-05-10T08:30:41.425Z,962.17
2023-05-10T08:31:41.648Z,962.17
2023-05-10T08:32:41.368Z,962.15
2023-05-10T08:33:42.439Z,962.11
2023-05-10T08:34:41.405Z,962.11
2023-05-10T08:35:41.228Z,962.12
2023-05-10T08:36:45.513Z,962.13
2023-05-10T08:37:41.134Z,962.16
2023-05-10T08:38:41.082Z,962.19
2023-05-10T08:39:41.089Z,962.17
2023-05-10T08:40:41.036Z,962.16
2023-05-10T08:41:40.958Z,962.15
2023-05-10T08:42:42.078Z,962.18
2023-05-10T08:43:40.875Z,962.14
2023-05-10T08:44:40.825Z,962.19
2023-05-10T08:45:40.975Z,962.25
2023-05-10T08:46:41.018Z,962.25
2023-05-10T08:47:40.721Z,962.28
2023-05-10T08:48:40.892Z,962.26
2023-05-10T08:49:40.618Z,962.27
2023-05-10T08:50:40.582Z,962.27
2023-05-10T08:51:41.851Z,962.28
2023-05-10T08:52:40.493Z,962.28
2023-05-10T08:53:40.520Z,962.27
2023-05-10T08:54:40.410Z,962.31
2023-05-10T08:55:40.366Z,962.33
2023-05-10T08:56:40.318Z,962.33
2023-05-10T08:57:40.556Z,962.34
2023-05-10T08:58:40.236Z,962.36
2023-05-10T08:59:41.408Z,962.34
2023-05-10T09:00:40.151Z,962.41
2023-05-10T09:01:40.110Z,962.38
2023-05-10T09:02:40.102Z,962.38
2023-05-10T09:03:41.250Z,962.37
2023-05-10T09:04:40.318Z,962.36
2023-05-10T09:05:39.998Z,962.39
2023-05-10T09:06:40.025Z,962.42
2023-05-10T09:07:41.041Z,962.46
2023-05-10T09:08:39.830Z,962.51
2023-05-10T09:09:40.848Z,962.47
2023-05-10T09:10:39.743Z,962.51
2023-05-10T09:11:39.839Z,962.55
2023-05-10T09:12:39.698Z,962.55
2023-05-10T09:13:39.850Z,962.56
2023-05-10T09:14:39.587Z,962.50
2023-05-10T09:16:07.122Z,962.52
2023-05-10T09:16:39.809Z,962.54
2023-05-10T09:17:39.531Z,962.48
2023-05-10T09:18:39.421Z,962.55
2023-05-10T09:19:39.506Z,962.58
2023-05-10T09:20:39.386Z,962.51
2023-05-10T09:21:39.715Z,962.52
2023-05-10T09:22:39.247Z,962.56
2023-05-10T09:23:39.197Z,962.53
2023-05-10T09:24:39.162Z,962.53
2023-05-10T09:25:39.333Z,962.53
2023-05-10T09:26:39.106Z,962.49
2023-05-10T09:27:39.749Z,962.51
2023-05-10T09:28:38.998Z,962.49
2023-05-10T09:29:38.960Z,962.52
2023-05-10T09:30:39.380Z,962.50
2023-05-10T09:31:38.909Z,962.53
2023-05-10T09:32:38.993Z,962.51
2023-05-10T09:33:38.807Z,962.51
2023-05-10T09:34:38.782Z,962.48
2023-05-10T09:35:38.714Z,962.43
2023-05-10T09:36:38.787Z,962.47
2023-05-10T09:37:38.635Z,962.45
2023-05-10T09:38:38.804Z,962.48
2023-05-10T09:39:38.555Z,962.47
2023-05-10T09:40:38.534Z,962.48
2023-05-10T09:41:38.484Z,962.45
2023-05-10T09:42:38.845Z,962.48
2023-05-10T09:43:38.398Z,962.50
2023-05-10T09:44:39.465Z,962.48
2023-05-10T09:45:38.871Z,962.54
2023-05-10T09:46:38.567Z,962.51
2023-05-10T09:47:38.332Z,962.54
2023-05-10T09:48:38.284Z,962.54
2023-05-10T09:49:38.144Z,962.57
2023-05-10T09:50:38.282Z,962.57
2023-05-10T09:51:38.079Z,962.71
2023-05-10T09:52:39.527Z,962.57
2023-05-10T09:53:38.028Z,962.53
2023-05-10T09:54:39.133Z,962.50
2023-05-10T09:55:37.907Z,962.60
2023-05-10T09:56:38.223Z,962.52
2023-05-10T09:57:37.849Z,962.48
2023-05-10T09:58:37.869Z,962.46
2023-05-10T09:59:37.961Z,962.42
2023-05-10T10:00:37.728Z,962.42
2023-05-10T10:01:37.846Z,962.44
2023-05-10T10:02:38.824Z,962.44
2023-05-10T10:03:37.627Z,962.48
2023-05-10T10:04:37.811Z,962.47
2023-05-10T10:05:37.546Z,962.44
2023-05-10T10:06:37.603Z,962.46
2023-05-10T10:07:37.462Z,962.49
2023-05-10T10:08:37.520Z,962.44
2023-05-10T10:09:58.685Z,962.53
2023-05-10T10:10:37.344Z,962.44
2023-05-10T10:11:37.461Z,962.44
2023-05-10T10:12:37.257Z,962.47
2023-05-10T10:13:37.232Z,962.44
2023-05-10T10:14:37.183Z,962.44
2023-05-10T10:15:38.520Z,962.41
2023-05-10T10:16:39.874Z,962.47
2023-05-10T10:17:38.366Z,962.49
2023-05-10T10:18:38.158Z,962.45
2023-05-10T10:19:37.365Z,962.45
2023-05-10T10:20:38.101Z,962.43
2023-05-10T10:21:36.923Z,962.42
2023-05-10T10:22:37.091Z,962.41
2023-05-10T10:23:36.840Z,962.44
2023-05-10T10:24:36.834Z,962.40
2023-05-10T10:25:37.931Z,962.39
2023-05-10T10:26:36.765Z,962.38
2023-05-10T10:27:37.008Z,962.37
2023-05-10T10:28:36.656Z,962.37
2023-05-10T10:29:36.722Z,962.38
2023-05-10T10:30:36.857Z,962.39
2023-05-10T10:31:37.910Z,962.37
2023-05-10T10:32:36.615Z,962.40
2023-05-10T10:33:37.585Z,962.43
2023-05-10T10:34:36.408Z,962.38
2023-05-10T10:35:36.386Z,962.40
2023-05-10T10:36:36.356Z,962.37
2023-05-10T10:37:36.375Z,962.41
2023-05-10T10:38:36.437Z,962.37
2023-05-10T10:39:37.550Z,962.47
2023-05-10T10:40:36.177Z,962.70
2023-05-10T10:41:36.146Z,962.62
2023-05-10T10:42:37.231Z,962.51
2023-05-10T10:43:36.099Z,962.50
2023-05-10T10:44:36.240Z,962.43
2023-05-10T10:45:35.988Z,962.45
2023-05-10T10:46:35.967Z,962.45
2023-05-10T10:47:35.934Z,962.45
2023-05-10T10:48:37.286Z,962.44
2023-05-10T10:49:35.863Z,962.37
2023-05-10T10:50:36.060Z,962.40
2023-05-10T10:51:35.765Z,962.38
2023-05-10T10:52:35.880Z,962.38
2023-05-10T10:53:35.693Z,962.42
2023-05-10T10:54:36.701Z,962.39
2023-05-10T10:55:36.764Z,962.38
2023-05-10T10:56:37.034Z,962.38
2023-05-10T10:57:35.535Z,962.45
2023-05-10T10:58:57.625Z,962.45
2023-05-10T10:59:35.469Z,962.45
2023-05-10T11:00:35.494Z,962.44
2023-05-10T11:01:35.628Z,962.41
2023-05-10T11:02:35.423Z,962.37
2023-05-10T11:03:37.468Z,962.44
2023-05-10T11:04:35.280Z,962.48
2023-05-10T11:05:35.349Z,962.69
2023-05-10T11:06:35.309Z,962.53
2023-05-10T11:07:37.218Z,962.50
2023-05-10T11:08:36.943Z,962.49
2023-05-10T11:09:35.176Z,962.52
2023-05-10T11:10:35.025Z,962.66
2023-05-10T11:11:35.188Z,962.57
2023-05-10T11:12:34.942Z,962.53
2023-05-10T11:13:36.035Z,962.50
2023-05-10T11:14:34.926Z,962.47
2023-05-10T11:15:35.146Z,962.44
2023-05-10T11:16:34.874Z,962.46
2023-05-10T11:17:34.855Z,962.42
2023-05-10T11:18:35.880Z,962.47
2023-05-10T11:19:34.689Z,962.46
2023-05-10T11:20:34.897Z,962.44
2023-05-10T11:21:55.768Z,962.38
2023-05-10T11:22:34.627Z,962.43
2023-05-10T11:23:34.871Z,962.45
2023-05-10T11:24:34.541Z,962.44
2023-05-10T11:25:34.687Z,962.42
2023-05-10T11:26:34.490Z,962.46
2023-05-10T11:27:34.487Z,962.59
2023-05-10T11:28:34.343Z,962.49
2023-05-10T11:29:36.765Z,962.42
2023-05-10T11:30:34.288Z,962.44
2023-05-10T11:31:34.259Z,962.37
2023-05-10T11:32:34.212Z,962.43
2023-05-10T11:33:34.328Z,962.41
2023-05-10T11:34:34.136Z,962.46
2023-05-10T11:35:34.407Z,962.42
2023-05-10T11:36:34.224Z,962.49
2023-05-10T11:37:34.044Z,962.45
2023-05-10T11:38:34.161Z,962.57
2023-05-10T11:39:38.725Z,962.63
2023-05-10T11:40:34.994Z,962.54
2023-05-10T11:41:33.910Z,962.47
2023-05-10T11:42:35.102Z,962.52
2023-05-10T11:43:33.811Z,962.48
2023-05-10T11:44:34.012Z,962.49
2023-05-10T11:45:33.777Z,962.44
2023-05-10T11:46:33.923Z,962.40
2023-05-10T11:47:34.902Z,962.49
2023-05-10T11:48:33.828Z,962.51
2023-05-10T11:49:33.599Z,962.49
2023-05-10T11:50:35.894Z,962.44
2023-05-10T11:51:33.529Z,962.48
2023-05-10T11:52:34.673Z,962.47
2023-05-10T11:53:33.487Z,962.46
2023-05-10T11:54:33.826Z,962.46
2023-05-10T11:55:33.388Z,962.50
2023-05-10T11:56:34.515Z,962.54
2023-05-10T11:57:33.326Z,962.49
2023-05-10T11:58:33.500Z,962.53
2023-05-10T11:59:33.256Z,962.53
2023-05-10T12:00:33.249Z,962.49
2023-05-10T12:01:33.178Z,962.52
2023-05-10T12:02:55.348Z,962.55
2023-05-10T12:03:33.298Z,962.52
2023-05-10T12:04:34.431Z,962.51
2023-05-10T12:05:33.035Z,962.51
2023-05-10T12:06:33.162Z,962.63
2023-05-10T12:07:33.149Z,962.50
2023-05-10T12:08:32.928Z,962.51
2023-05-10T12:09:43.199Z,962.48
2023-05-10T12:10:32.849Z,962.45
2023-05-10T12:11:32.976Z,962.44
2023-05-10T12:12:33.024Z,962.46
2023-05-10T12:13:34.012Z,962.52
2023-05-10T12:14:32.788Z,962.49
2023-05-10T12:15:32.796Z,962.49
2023-05-10T12:16:32.730Z,962.47
2023-05-10T12:17:34.895Z,962.47
2023-05-10T12:18:32.593Z,962.46
2023-05-10T12:19:32.619Z,962.46
2023-05-10T12:20:32.680Z,962.41
2023-05-10T12:21:32.642Z,962.44
2023-05-10T12:22:32.419Z,962.42
2023-05-10T12:23:32.368Z,962.45
2023-05-10T12:24:32.333Z,962.44
2023-05-10T12:25:32.470Z,962.44
2023-05-10T12:26:32.252Z,962.44
2023-05-10T12:27:32.677Z,962.43
2023-05-10T12:28:32.185Z,962.39
2023-05-10T12:29:32.149Z,962.42
2023-05-10T12:30:32.292Z,962.42
2023-05-10T12:31:32.102Z,962.35
2023-05-10T12:32:55.259Z,962.37